sensor_id;sensor_type;location;lat;lon;timestamp;P1;durP1;ratioP1;P2;durP2;ratioP2
45842;SDS011;31563;51.744;8.252;2024-01-30T00:02:26;3.47;;;3.15;;
45842;SDS011;31563;51.744;8.252;2024-01-30T00:04:54;4.18;;;3.78;;
45842;SDS011;31563;51.744;8.252;2024-01-30T00:07:23;4.35;;;3.70;;
45842;SDS011;31563;51.744;8.252;2024-01-30T00:09:51;5.10;;;4.15;;
45842;SDS011;31563;51.744;8.252;2024-01-30T00:12:19;4.00;;;3.63;;
45842;SDS011;31563;51.744;8.252;2024-01-30T00:14:47;4.45;;;4.05;;
45842;SDS011;31563;51.744;8.252;2024-01-30T00:17:19;4.28;;;3.88;;
45842;SDS011;31563;51.744;8.252;2024-01-30T00:19:48;4.32;;;3.95;;
45842;SDS011;31563;51.744;8.252;2024-01-30T00:22:16;4.82;;;4.30;;
45842;SDS011;31563;51.744;8.252;2024-01-30T00:24:46;3.92;;;3.53;;
45842;SDS011;31563;51.744;8.252;2024-01-30T00:27:14;4.43;;;4.00;;
45842;SDS011;31563;51.744;8.252;2024-01-30T00:29:42;5.38;;;3.88;;
45842;SDS011;31563;51.744;8.252;2024-01-30T00:32:10;4.78;;;3.70;;
45842;SDS011;31563;51.744;8.252;2024-01-30T00:34:38;4.00;;;3.47;;
45842;SDS011;31563;51.744;8.252;2024-01-30T00:37:06;3.85;;;3.53;;
45842;SDS011;31563;51.744;8.252;2024-01-30T00:39:34;3.80;;;3.40;;
45842;SDS011;31563;51.744;8.252;2024-01-30T00:42:05;4.30;;;3.90;;
45842;SDS011;31563;51.744;8.252;2024-01-30T00:44:34;5.47;;;3.50;;
45842;SDS011;31563;51.744;8.252;2024-01-30T00:47:03;3.72;;;3.40;;
45842;SDS011;31563;51.744;8.252;2024-01-30T00:49:31;3.78;;;3.38;;
45842;SDS011;31563;51.744;8.252;2024-01-30T00:52:00;4.22;;;3.83;;
45842;SDS011;31563;51.744;8.252;2024-01-30T00:54:28;4.25;;;3.85;;
45842;SDS011;31563;51.744;8.252;2024-01-30T00:56:56;4.05;;;3.40;;
45842;SDS011;31563;51.744;8.252;2024-01-30T00:59:25;3.95;;;3.55;;
45842;SDS011;31563;51.744;8.252;2024-01-30T01:01:53;4.07;;;3.50;;
45842;SDS011;31563;51.744;8.252;2024-01-30T01:04:21;3.97;;;3.58;;
45842;SDS011;31563;51.744;8.252;2024-01-30T01:06:49;4.63;;;3.50;;
45842;SDS011;31563;51.744;8.252;2024-01-30T01:09:17;4.22;;;3.67;;
45842;SDS011;31563;51.744;8.252;2024-01-30T01:11:45;4.13;;;3.72;;
45842;SDS011;31563;51.744;8.252;2024-01-30T01:14:13;3.80;;;3.40;;
45842;SDS011;31563;51.744;8.252;2024-01-30T01:16:43;4.43;;;3.53;;
45842;SDS011;31563;51.744;8.252;2024-01-30T01:19:11;4.53;;;3.70;;
45842;SDS011;31563;51.744;8.252;2024-01-30T01:21:39;3.65;;;3.35;;
45842;SDS011;31563;51.744;8.252;2024-01-30T01:24:07;3.88;;;3.50;;
45842;SDS011;31563;51.744;8.252;2024-01-30T01:26:35;3.42;;;3.13;;
45842;SDS011;31563;51.744;8.252;2024-01-30T01:29:03;3.70;;;3.40;;
45842;SDS011;31563;51.744;8.252;2024-01-30T01:31:36;4.07;;;3.53;;
45842;SDS011;31563;51.744;8.252;2024-01-30T01:34:11;4.15;;;3.53;;
45842;SDS011;31563;51.744;8.252;2024-01-30T01:39:07;3.95;;;3.55;;
45842;SDS011;31563;51.744;8.252;2024-01-30T01:41:35;3.92;;;3.42;;
45842;SDS011;31563;51.744;8.252;2024-01-30T01:44:03;3.97;;;3.58;;
45842;SDS011;31563;51.744;8.252;2024-01-30T01:46:32;3.90;;;3.60;;
45842;SDS011;31563;51.744;8.252;2024-01-30T01:49:01;3.83;;;3.43;;
45842;SDS011;31563;51.744;8.252;2024-01-30T01:51:33;3.63;;;3.22;;
45842;SDS011;31563;51.744;8.252;2024-01-30T01:54:03;3.60;;;3.30;;
45842;SDS011;31563;51.744;8.252;2024-01-30T01:56:32;3.50;;;3.20;;
45842;SDS011;31563;51.744;8.252;2024-01-30T01:59:04;4.18;;;3.50;;
45842;SDS011;31563;51.744;8.252;2024-01-30T02:01:33;3.80;;;3.40;;
45842;SDS011;31563;51.744;8.252;2024-01-30T02:06:33;3.40;;;3.10;;
45842;SDS011;31563;51.744;8.252;2024-01-30T02:09:02;3.15;;;2.92;;
45842;SDS011;31563;51.744;8.252;2024-01-30T02:11:30;3.97;;;3.63;;
45842;SDS011;31563;51.744;8.252;2024-01-30T02:14:01;3.65;;;3.35;;
45842;SDS011;31563;51.744;8.252;2024-01-30T02:16:30;4.03;;;3.20;;
45842;SDS011;31563;51.744;8.252;2024-01-30T02:18:58;3.80;;;3.40;;
45842;SDS011;31563;51.744;8.252;2024-01-30T02:21:27;3.67;;;3.13;;
45842;SDS011;31563;51.744;8.252;2024-01-30T02:23:55;4.47;;;3.80;;
45842;SDS011;31563;51.744;8.252;2024-01-30T02:26:25;3.42;;;3.00;;
45842;SDS011;31563;51.744;8.252;2024-01-30T02:28:53;4.00;;;3.60;;
45842;SDS011;31563;51.744;8.252;2024-01-30T02:31:21;3.45;;;2.97;;
45842;SDS011;31563;51.744;8.252;2024-01-30T02:33:50;3.42;;;3.13;;
45842;SDS011;31563;51.744;8.252;2024-01-30T02:36:18;3.85;;;3.53;;
45842;SDS011;31563;51.744;8.252;2024-01-30T02:38:47;3.75;;;3.45;;
45842;SDS011;31563;51.744;8.252;2024-01-30T02:41:15;3.43;;;3.13;;
45842;SDS011;31563;51.744;8.252;2024-01-30T02:43:43;3.20;;;2.97;;
45842;SDS011;31563;51.744;8.252;2024-01-30T02:46:11;3.75;;;3.42;;
45842;SDS011;31563;51.744;8.252;2024-01-30T02:48:39;3.90;;;3.50;;
45842;SDS011;31563;51.744;8.252;2024-01-30T02:51:07;4.03;;;3.63;;
45842;SDS011;31563;51.744;8.252;2024-01-30T02:53:35;3.60;;;3.30;;
45842;SDS011;31563;51.744;8.252;2024-01-30T02:56:04;3.45;;;3.15;;
45842;SDS011;31563;51.744;8.252;2024-01-30T02:58:36;3.58;;;3.22;;
45842;SDS011;31563;51.744;8.252;2024-01-30T03:01:04;3.30;;;3.00;;
45842;SDS011;31563;51.744;8.252;2024-01-30T03:03:32;4.07;;;3.65;;
45842;SDS011;31563;51.744;8.252;2024-01-30T03:06:01;3.23;;;2.80;;
45842;SDS011;31563;51.744;8.252;2024-01-30T03:08:29;3.83;;;3.40;;
45842;SDS011;31563;51.744;8.252;2024-01-30T03:10:57;3.60;;;3.20;;
45842;SDS011;31563;51.744;8.252;2024-01-30T03:13:26;4.13;;;3.22;;
45842;SDS011;31563;51.744;8.252;2024-01-30T03:15:54;4.88;;;4.20;;
45842;SDS011;31563;51.744;8.252;2024-01-30T03:18:22;3.25;;;2.95;;
45842;SDS011;31563;51.744;8.252;2024-01-30T03:20:50;3.67;;;3.38;;
45842;SDS011;31563;51.744;8.252;2024-01-30T03:23:18;3.97;;;3.10;;
45842;SDS011;31563;51.744;8.252;2024-01-30T03:25:46;4.65;;;3.95;;
45842;SDS011;31563;51.744;8.252;2024-01-30T03:28:14;4.50;;;3.47;;
45842;SDS011;31563;51.744;8.252;2024-01-30T03:30:43;3.58;;;3.13;;
45842;SDS011;31563;51.744;8.252;2024-01-30T03:33:11;3.25;;;2.95;;
45842;SDS011;31563;51.744;8.252;2024-01-30T03:35:39;4.88;;;3.80;;
45842;SDS011;31563;51.744;8.252;2024-01-30T03:38:07;4.28;;;3.67;;
45842;SDS011;31563;51.744;8.252;2024-01-30T03:40:35;3.45;;;3.15;;
45842;SDS011;31563;51.744;8.252;2024-01-30T03:43:03;4.07;;;3.10;;
45842;SDS011;31563;51.744;8.252;2024-01-30T03:45:31;3.72;;;3.42;;
45842;SDS011;31563;51.744;8.252;2024-01-30T03:48:01;3.92;;;3.38;;
45842;SDS011;31563;51.744;8.252;2024-01-30T03:50:29;3.35;;;3.05;;
45842;SDS011;31563;51.744;8.252;2024-01-30T03:52:57;3.33;;;3.03;;
45842;SDS011;31563;51.744;8.252;2024-01-30T03:55:24;3.40;;;3.10;;
45842;SDS011;31563;51.744;8.252;2024-01-30T03:57:52;3.28;;;2.97;;
45842;SDS011;31563;51.744;8.252;2024-01-30T04:00:20;3.58;;;3.17;;
45842;SDS011;31563;51.744;8.252;2024-01-30T04:02:48;3.33;;;3.03;;
45842;SDS011;31563;51.744;8.252;2024-01-30T04:05:18;2.90;;;2.60;;
45842;SDS011;31563;51.744;8.252;2024-01-30T04:07:46;4.50;;;3.37;;
45842;SDS011;31563;51.744;8.252;2024-01-30T04:10:14;4.38;;;3.05;;
45842;SDS011;31563;51.744;8.252;2024-01-30T04:12:42;3.55;;;3.25;;
45842;SDS011;31563;51.744;8.252;2024-01-30T04:15:10;3.45;;;3.15;;
45842;SDS011;31563;51.744;8.252;2024-01-30T04:17:39;3.87;;;3.40;;
45842;SDS011;31563;51.744;8.252;2024-01-30T04:20:08;4.40;;;3.40;;
45842;SDS011;31563;51.744;8.252;2024-01-30T04:22:42;3.58;;;3.20;;
45842;SDS011;31563;51.744;8.252;2024-01-30T04:25:10;3.97;;;3.40;;
45842;SDS011;31563;51.744;8.252;2024-01-30T04:27:38;3.40;;;3.10;;
45842;SDS011;31563;51.744;8.252;2024-01-30T04:30:06;4.00;;;3.50;;
45842;SDS011;31563;51.744;8.252;2024-01-30T04:32:35;3.47;;;3.17;;
45842;SDS011;31563;51.744;8.252;2024-01-30T04:35:03;3.42;;;3.13;;
45842;SDS011;31563;51.744;8.252;2024-01-30T04:37:36;3.38;;;3.08;;
45842;SDS011;31563;51.744;8.252;2024-01-30T04:40:06;3.58;;;3.28;;
45842;SDS011;31563;51.744;8.252;2024-01-30T04:42:35;3.55;;;3.22;;
45842;SDS011;31563;51.744;8.252;2024-01-30T04:45:03;3.60;;;3.00;;
45842;SDS011;31563;51.744;8.252;2024-01-30T04:47:32;3.60;;;3.30;;
45842;SDS011;31563;51.744;8.252;2024-01-30T04:50:01;4.13;;;3.45;;
45842;SDS011;31563;51.744;8.252;2024-01-30T04:52:31;3.38;;;3.08;;
45842;SDS011;31563;51.744;8.252;2024-01-30T04:54:59;3.65;;;3.30;;
45842;SDS011;31563;51.744;8.252;2024-01-30T04:57:28;3.03;;;2.65;;
45842;SDS011;31563;51.744;8.252;2024-01-30T04:59:57;3.38;;;3.08;;
45842;SDS011;31563;51.744;8.252;2024-01-30T05:02:25;3.33;;;3.03;;
45842;SDS011;31563;51.744;8.252;2024-01-30T05:04:52;3.17;;;2.80;;
45842;SDS011;31563;51.744;8.252;2024-01-30T05:07:20;3.55;;;3.15;;
45842;SDS011;31563;51.744;8.252;2024-01-30T05:09:49;3.65;;;3.25;;
45842;SDS011;31563;51.744;8.252;2024-01-30T05:12:17;4.18;;;2.92;;
45842;SDS011;31563;51.744;8.252;2024-01-30T05:14:46;3.28;;;2.97;;
45842;SDS011;31563;51.744;8.252;2024-01-30T05:17:14;3.33;;;3.03;;
45842;SDS011;31563;51.744;8.252;2024-01-30T05:19:43;3.33;;;2.97;;
45842;SDS011;31563;51.744;8.252;2024-01-30T05:22:11;2.97;;;2.70;;
45842;SDS011;31563;51.744;8.252;2024-01-30T05:27:09;3.42;;;2.70;;
45842;SDS011;31563;51.744;8.252;2024-01-30T05:29:39;3.60;;;3.30;;
45842;SDS011;31563;51.744;8.252;2024-01-30T05:32:08;6.97;;;4.65;;
45842;SDS011;31563;51.744;8.252;2024-01-30T05:34:36;7.03;;;5.50;;
45842;SDS011;31563;51.744;8.252;2024-01-30T05:37:04;7.60;;;5.55;;
45842;SDS011;31563;51.744;8.252;2024-01-30T05:39:33;6.30;;;5.70;;
45842;SDS011;31563;51.744;8.252;2024-01-30T05:42:01;6.10;;;5.50;;
45842;SDS011;31563;51.744;8.252;2024-01-30T05:44:29;6.32;;;5.72;;
45842;SDS011;31563;51.744;8.252;2024-01-30T05:46:57;7.38;;;6.45;;
45842;SDS011;31563;51.744;8.252;2024-01-30T05:49:27;6.60;;;6.00;;
45842;SDS011;31563;51.744;8.252;2024-01-30T05:51:54;6.07;;;5.53;;
45842;SDS011;31563;51.744;8.252;2024-01-30T05:54:22;7.65;;;6.85;;
45842;SDS011;31563;51.744;8.252;2024-01-30T05:56:50;8.77;;;6.78;;
45842;SDS011;31563;51.744;8.252;2024-01-30T05:59:18;8.98;;;5.88;;
45842;SDS011;31563;51.744;8.252;2024-01-30T06:01:46;7.45;;;6.65;;
45842;SDS011;31563;51.744;8.252;2024-01-30T06:04:14;6.20;;;5.60;;
45842;SDS011;31563;51.744;8.252;2024-01-30T06:06:44;6.50;;;5.85;;
45842;SDS011;31563;51.744;8.252;2024-01-30T06:09:12;7.65;;;5.88;;
45842;SDS011;31563;51.744;8.252;2024-01-30T06:11:40;6.07;;;5.47;;
45842;SDS011;31563;51.744;8.252;2024-01-30T06:14:08;7.70;;;5.10;;
45842;SDS011;31563;51.744;8.252;2024-01-30T06:16:36;6.40;;;4.80;;
45842;SDS011;31563;51.744;8.252;2024-01-30T06:19:04;6.45;;;4.97;;
45842;SDS011;31563;51.744;8.252;2024-01-30T06:21:32;7.93;;;6.43;;
45842;SDS011;31563;51.744;8.252;2024-01-30T06:24:04;7.15;;;6.45;;
45842;SDS011;31563;51.744;8.252;2024-01-30T06:26:32;7.18;;;6.30;;
45842;SDS011;31563;51.744;8.252;2024-01-30T06:29:01;7.07;;;6.38;;
45842;SDS011;31563;51.744;8.252;2024-01-30T06:31:29;7.40;;;5.88;;
45842;SDS011;31563;51.744;8.252;2024-01-30T06:33:57;6.95;;;6.22;;
45842;SDS011;31563;51.744;8.252;2024-01-30T06:36:25;6.95;;;5.97;;
45842;SDS011;31563;51.744;8.252;2024-01-30T06:38:53;6.85;;;6.15;;
45842;SDS011;31563;51.744;8.252;2024-01-30T06:41:22;5.38;;;4.82;;
45842;SDS011;31563;51.744;8.252;2024-01-30T06:43:50;6.10;;;5.28;;
45842;SDS011;31563;51.744;8.252;2024-01-30T06:46:18;5.50;;;5.00;;
45842;SDS011;31563;51.744;8.252;2024-01-30T06:48:46;8.35;;;6.47;;
45842;SDS011;31563;51.744;8.252;2024-01-30T06:51:14;7.70;;;5.70;;
45842;SDS011;31563;51.744;8.252;2024-01-30T06:53:43;6.80;;;5.72;;
45842;SDS011;31563;51.744;8.252;2024-01-30T06:56:11;7.00;;;4.93;;
45842;SDS011;31563;51.744;8.252;2024-01-30T06:58:41;5.63;;;4.65;;
45842;SDS011;31563;51.744;8.252;2024-01-30T07:01:08;5.80;;;5.20;;
45842;SDS011;31563;51.744;8.252;2024-01-30T07:03:38;7.35;;;5.28;;
45842;SDS011;31563;51.744;8.252;2024-01-30T07:06:06;5.10;;;4.60;;
45842;SDS011;31563;51.744;8.252;2024-01-30T07:08:34;6.43;;;4.78;;
45842;SDS011;31563;51.744;8.252;2024-01-30T07:11:02;5.63;;;5.10;;
45842;SDS011;31563;51.744;8.252;2024-01-30T07:13:30;7.15;;;6.00;;
45842;SDS011;31563;51.744;8.252;2024-01-30T07:15:59;8.68;;;7.75;;
45842;SDS011;31563;51.744;8.252;2024-01-30T07:18:27;10.00;;;8.77;;
45842;SDS011;31563;51.744;8.252;2024-01-30T07:20:55;10.68;;;7.32;;
45842;SDS011;31563;51.744;8.252;2024-01-30T07:23:23;7.32;;;6.55;;
45842;SDS011;31563;51.744;8.252;2024-01-30T07:25:51;7.38;;;6.35;;
45842;SDS011;31563;51.744;8.252;2024-01-30T07:28:19;6.85;;;6.15;;
45842;SDS011;31563;51.744;8.252;2024-01-30T07:30:46;6.40;;;5.22;;
45842;SDS011;31563;51.744;8.252;2024-01-30T07:33:16;6.32;;;5.72;;
45842;SDS011;31563;51.744;8.252;2024-01-30T07:35:45;6.65;;;5.05;;
45842;SDS011;31563;51.744;8.252;2024-01-30T07:38:13;6.43;;;5.38;;
45842;SDS011;31563;51.744;8.252;2024-01-30T07:40:41;5.47;;;4.95;;
45842;SDS011;31563;51.744;8.252;2024-01-30T07:43:09;5.60;;;4.88;;
45842;SDS011;31563;51.744;8.252;2024-01-30T07:45:37;5.47;;;4.90;;
45842;SDS011;31563;51.744;8.252;2024-01-30T07:48:05;7.97;;;5.45;;
45842;SDS011;31563;51.744;8.252;2024-01-30T07:50:35;5.38;;;4.88;;
45842;SDS011;31563;51.744;8.252;2024-01-30T07:53:03;6.75;;;5.40;;
45842;SDS011;31563;51.744;8.252;2024-01-30T07:55:31;5.90;;;4.45;;
45842;SDS011;31563;51.744;8.252;2024-01-30T07:57:59;5.18;;;4.68;;
45842;SDS011;31563;51.744;8.252;2024-01-30T08:00:27;5.35;;;4.85;;
45842;SDS011;31563;51.744;8.252;2024-01-30T08:02:56;5.13;;;4.63;;
45842;SDS011;31563;51.744;8.252;2024-01-30T08:05:24;5.20;;;4.70;;
45842;SDS011;31563;51.744;8.252;2024-01-30T08:07:54;5.88;;;4.15;;
45842;SDS011;31563;51.744;8.252;2024-01-30T08:10:22;3.87;;;3.53;;
45842;SDS011;31563;51.744;8.252;2024-01-30T08:12:50;4.95;;;4.30;;
45842;SDS011;31563;51.744;8.252;2024-01-30T08:15:18;5.90;;;3.83;;
45842;SDS011;31563;51.744;8.252;2024-01-30T08:17:46;4.63;;;3.88;;
45842;SDS011;31563;51.744;8.252;2024-01-30T08:20:14;7.47;;;3.75;;
45842;SDS011;31563;51.744;8.252;2024-01-30T08:22:43;4.47;;;3.85;;
45842;SDS011;31563;51.744;8.252;2024-01-30T08:25:12;4.20;;;3.65;;
45842;SDS011;31563;51.744;8.252;2024-01-30T08:27:40;4.00;;;3.55;;
45842;SDS011;31563;51.744;8.252;2024-01-30T08:30:09;5.75;;;3.72;;
45842;SDS011;31563;51.744;8.252;2024-01-30T08:32:37;4.70;;;3.58;;
45842;SDS011;31563;51.744;8.252;2024-01-30T08:35:05;4.10;;;3.67;;
45842;SDS011;31563;51.744;8.252;2024-01-30T08:37:35;5.57;;;3.88;;
45842;SDS011;31563;51.744;8.252;2024-01-30T08:40:03;4.70;;;3.72;;
45842;SDS011;31563;51.744;8.252;2024-01-30T08:42:33;5.25;;;3.88;;
45842;SDS011;31563;51.744;8.252;2024-01-30T08:45:01;5.38;;;3.92;;
45842;SDS011;31563;51.744;8.252;2024-01-30T08:47:31;4.05;;;3.58;;
45842;SDS011;31563;51.744;8.252;2024-01-30T08:49:59;3.88;;;3.45;;
45842;SDS011;31563;51.744;8.252;2024-01-30T08:52:27;4.93;;;3.60;;
45842;SDS011;31563;51.744;8.252;2024-01-30T08:54:55;3.50;;;3.20;;
45842;SDS011;31563;51.744;8.252;2024-01-30T08:57:23;3.42;;;3.13;;
45842;SDS011;31563;51.744;8.252;2024-01-30T08:59:56;4.25;;;3.33;;
45842;SDS011;31563;51.744;8.252;2024-01-30T09:02:24;4.43;;;3.67;;
45842;SDS011;31563;51.744;8.252;2024-01-30T09:04:52;5.00;;;3.22;;
45842;SDS011;31563;51.744;8.252;2024-01-30T09:07:20;3.70;;;3.40;;
45842;SDS011;31563;51.744;8.252;2024-01-30T09:09:48;4.30;;;3.10;;
45842;SDS011;31563;51.744;8.252;2024-01-30T09:12:16;3.38;;;3.08;;
45842;SDS011;31563;51.744;8.252;2024-01-30T09:14:44;3.17;;;2.88;;
45842;SDS011;31563;51.744;8.252;2024-01-30T09:17:13;4.32;;;3.63;;
45842;SDS011;31563;51.744;8.252;2024-01-30T09:19:41;4.33;;;3.57;;
45842;SDS011;31563;51.744;8.252;2024-01-30T09:22:09;4.00;;;3.15;;
45842;SDS011;31563;51.744;8.252;2024-01-30T09:24:37;3.75;;;3.10;;
45842;SDS011;31563;51.744;8.252;2024-01-30T09:27:05;3.53;;;3.10;;
45842;SDS011;31563;51.744;8.252;2024-01-30T09:29:33;3.67;;;2.83;;
45842;SDS011;31563;51.744;8.252;2024-01-30T09:32:03;3.45;;;2.92;;
45842;SDS011;31563;51.744;8.252;2024-01-30T09:34:33;3.70;;;3.22;;
45842;SDS011;31563;51.744;8.252;2024-01-30T09:37:02;3.40;;;2.95;;
45842;SDS011;31563;51.744;8.252;2024-01-30T09:39:30;3.58;;;2.90;;
45842;SDS011;31563;51.744;8.252;2024-01-30T09:42:01;3.17;;;2.75;;
45842;SDS011;31563;51.744;8.252;2024-01-30T09:44:32;3.47;;;2.90;;
45842;SDS011;31563;51.744;8.252;2024-01-30T09:47:03;3.85;;;3.05;;
45842;SDS011;31563;51.744;8.252;2024-01-30T09:49:33;3.15;;;2.85;;
45842;SDS011;31563;51.744;8.252;2024-01-30T09:52:02;3.33;;;3.00;;
45842;SDS011;31563;51.744;8.252;2024-01-30T09:54:32;2.97;;;2.72;;
45842;SDS011;31563;51.744;8.252;2024-01-30T09:57:02;2.90;;;2.42;;
45842;SDS011;31563;51.744;8.252;2024-01-30T09:59:31;2.95;;;2.70;;
45842;SDS011;31563;51.744;8.252;2024-01-30T10:02:00;3.42;;;2.85;;
45842;SDS011;31563;51.744;8.252;2024-01-30T10:04:30;3.38;;;2.80;;
45842;SDS011;31563;51.744;8.252;2024-01-30T10:07:01;3.25;;;2.95;;
45842;SDS011;31563;51.744;8.252;2024-01-30T10:09:31;3.28;;;2.97;;
45842;SDS011;31563;51.744;8.252;2024-01-30T10:12:01;3.17;;;2.72;;
45842;SDS011;31563;51.744;8.252;2024-01-30T10:14:30;3.33;;;3.03;;
45842;SDS011;31563;51.744;8.252;2024-01-30T10:16:58;3.78;;;2.97;;
45842;SDS011;31563;51.744;8.252;2024-01-30T10:19:26;3.35;;;2.90;;
45842;SDS011;31563;51.744;8.252;2024-01-30T10:21:54;3.38;;;3.08;;
45842;SDS011;31563;51.744;8.252;2024-01-30T10:24:25;2.95;;;2.75;;
45842;SDS011;31563;51.744;8.252;2024-01-30T10:26:55;3.30;;;3.00;;
45842;SDS011;31563;51.744;8.252;2024-01-30T10:29:24;3.22;;;2.70;;
45842;SDS011;31563;51.744;8.252;2024-01-30T10:31:58;3.13;;;2.83;;
45842;SDS011;31563;51.744;8.252;2024-01-30T10:34:26;2.83;;;2.60;;
45842;SDS011;31563;51.744;8.252;2024-01-30T10:36:58;3.17;;;2.85;;
45842;SDS011;31563;51.744;8.252;2024-01-30T10:39:33;2.97;;;2.78;;
45842;SDS011;31563;51.744;8.252;2024-01-30T10:42:06;3.00;;;2.80;;
45842;SDS011;31563;51.744;8.252;2024-01-30T10:44:39;3.50;;;2.60;;
45842;SDS011;31563;51.744;8.252;2024-01-30T10:47:13;3.00;;;2.80;;
45842;SDS011;31563;51.744;8.252;2024-01-30T10:49:46;2.97;;;2.70;;
45842;SDS011;31563;51.744;8.252;2024-01-30T10:52:14;2.88;;;2.40;;
45842;SDS011;31563;51.744;8.252;2024-01-30T10:54:45;2.47;;;2.28;;
45842;SDS011;31563;51.744;8.252;2024-01-30T10:57:14;3.20;;;2.90;;
45842;SDS011;31563;51.744;8.252;2024-01-30T10:59:43;2.75;;;2.40;;
45842;SDS011;31563;51.744;8.252;2024-01-30T11:02:12;2.70;;;2.50;;
45842;SDS011;31563;51.744;8.252;2024-01-30T11:04:41;2.33;;;2.10;;
45842;SDS011;31563;51.744;8.252;2024-01-30T11:07:13;2.60;;;2.40;;
45842;SDS011;31563;51.744;8.252;2024-01-30T11:09:49;2.80;;;2.47;;
45842;SDS011;31563;51.744;8.252;2024-01-30T11:12:21;2.80;;;2.60;;
45842;SDS011;31563;51.744;8.252;2024-01-30T11:14:50;3.00;;;2.70;;
45842;SDS011;31563;51.744;8.252;2024-01-30T11:17:39;2.55;;;2.35;;
45842;SDS011;31563;51.744;8.252;2024-01-30T11:20:09;2.40;;;2.20;;
45842;SDS011;31563;51.744;8.252;2024-01-30T11:22:40;2.60;;;2.40;;
45842;SDS011;31563;51.744;8.252;2024-01-30T11:25:12;2.88;;;2.55;;
45842;SDS011;31563;51.744;8.252;2024-01-30T11:27:41;2.95;;;2.45;;
45842;SDS011;31563;51.744;8.252;2024-01-30T11:30:10;2.85;;;2.60;;
45842;SDS011;31563;51.744;8.252;2024-01-30T11:32:38;2.50;;;2.30;;
45842;SDS011;31563;51.744;8.252;2024-01-30T11:35:06;2.97;;;2.47;;
45842;SDS011;31563;51.744;8.252;2024-01-30T11:37:37;2.65;;;2.45;;
45842;SDS011;31563;51.744;8.252;2024-01-30T11:40:06;2.22;;;2.03;;
45842;SDS011;31563;51.744;8.252;2024-01-30T11:45:06;2.47;;;2.28;;
45842;SDS011;31563;51.744;8.252;2024-01-30T11:47:34;2.25;;;2.05;;
45842;SDS011;31563;51.744;8.252;2024-01-30T11:50:07;1.98;;;1.80;;
45842;SDS011;31563;51.744;8.252;2024-01-30T11:55:05;2.63;;;2.40;;
45842;SDS011;31563;51.744;8.252;2024-01-30T11:57:34;2.40;;;2.20;;
45842;SDS011;31563;51.744;8.252;2024-01-30T12:00:05;2.30;;;2.10;;
45842;SDS011;31563;51.744;8.252;2024-01-30T12:02:36;3.63;;;2.60;;
45842;SDS011;31563;51.744;8.252;2024-01-30T12:05:04;2.80;;;2.40;;
45842;SDS011;31563;51.744;8.252;2024-01-30T12:07:33;2.72;;;2.05;;
45842;SDS011;31563;51.744;8.252;2024-01-30T12:10:01;2.22;;;1.80;;
45842;SDS011;31563;51.744;8.252;2024-01-30T12:12:29;2.78;;;2.20;;
45842;SDS011;31563;51.744;8.252;2024-01-30T12:14:57;2.35;;;2.08;;
45842;SDS011;31563;51.744;8.252;2024-01-30T12:17:29;2.45;;;2.08;;
45842;SDS011;31563;51.744;8.252;2024-01-30T12:20:04;2.35;;;2.10;;
45842;SDS011;31563;51.744;8.252;2024-01-30T12:22:35;3.08;;;2.30;;
45842;SDS011;31563;51.744;8.252;2024-01-30T12:25:04;2.30;;;2.10;;
45842;SDS011;31563;51.744;8.252;2024-01-30T12:27:35;2.15;;;1.95;;
45842;SDS011;31563;51.744;8.252;2024-01-30T12:30:05;1.92;;;1.80;;
45842;SDS011;31563;51.744;8.252;2024-01-30T12:32:35;2.30;;;2.10;;
45842;SDS011;31563;51.744;8.252;2024-01-30T12:35:04;2.13;;;1.92;;
45842;SDS011;31563;51.744;8.252;2024-01-30T12:37:35;2.30;;;2.00;;
45842;SDS011;31563;51.744;8.252;2024-01-30T12:40:03;2.30;;;2.10;;
45842;SDS011;31563;51.744;8.252;2024-01-30T12:42:33;2.40;;;2.20;;
45842;SDS011;31563;51.744;8.252;2024-01-30T12:45:02;2.00;;;1.80;;
45842;SDS011;31563;51.744;8.252;2024-01-30T12:47:30;2.45;;;2.25;;
45842;SDS011;31563;51.744;8.252;2024-01-30T12:49:59;2.40;;;2.20;;
45842;SDS011;31563;51.744;8.252;2024-01-30T12:52:28;2.45;;;2.13;;
45842;SDS011;31563;51.744;8.252;2024-01-30T12:54:56;2.67;;;1.83;;
45842;SDS011;31563;51.744;8.252;2024-01-30T12:57:24;2.20;;;2.00;;
45842;SDS011;31563;51.744;8.252;2024-01-30T12:59:52;2.15;;;1.88;;
45842;SDS011;31563;51.744;8.252;2024-01-30T13:02:20;2.33;;;2.13;;
45842;SDS011;31563;51.744;8.252;2024-01-30T13:04:48;2.25;;;2.05;;
45842;SDS011;31563;51.744;8.252;2024-01-30T13:07:18;2.67;;;2.47;;
45842;SDS011;31563;51.744;8.252;2024-01-30T13:09:47;2.38;;;1.95;;
45842;SDS011;31563;51.744;8.252;2024-01-30T13:12:15;2.50;;;1.73;;
45842;SDS011;31563;51.744;8.252;2024-01-30T13:14:43;2.40;;;2.20;;
45842;SDS011;31563;51.744;8.252;2024-01-30T13:17:11;2.30;;;1.90;;
45842;SDS011;31563;51.744;8.252;2024-01-30T13:19:39;2.53;;;2.08;;
45842;SDS011;31563;51.744;8.252;2024-01-30T13:22:07;2.03;;;1.83;;
45842;SDS011;31563;51.744;8.252;2024-01-30T13:24:37;1.90;;;1.70;;
45842;SDS011;31563;51.744;8.252;2024-01-30T13:27:05;3.17;;;2.10;;
45842;SDS011;31563;51.744;8.252;2024-01-30T13:29:33;2.13;;;1.92;;
45842;SDS011;31563;51.744;8.252;2024-01-30T13:32:01;2.08;;;1.88;;
45842;SDS011;31563;51.744;8.252;2024-01-30T13:34:29;2.50;;;2.15;;
45842;SDS011;31563;51.744;8.252;2024-01-30T13:36:57;3.38;;;2.25;;
45842;SDS011;31563;51.744;8.252;2024-01-30T13:39:25;2.53;;;1.90;;
45842;SDS011;31563;51.744;8.252;2024-01-30T13:42:03;2.35;;;2.15;;
45842;SDS011;31563;51.744;8.252;2024-01-30T13:44:33;3.00;;;1.80;;
45842;SDS011;31563;51.744;8.252;2024-01-30T13:47:02;2.33;;;2.00;;
45842;SDS011;31563;51.744;8.252;2024-01-30T13:49:30;2.53;;;1.92;;
45842;SDS011;31563;51.744;8.252;2024-01-30T13:51:58;2.05;;;1.83;;
45842;SDS011;31563;51.744;8.252;2024-01-30T13:54:26;2.17;;;1.98;;
45842;SDS011;31563;51.744;8.252;2024-01-30T13:56:54;2.38;;;2.17;;
45842;SDS011;31563;51.744;8.252;2024-01-30T13:59:24;2.08;;;1.80;;
45842;SDS011;31563;51.744;8.252;2024-01-30T14:01:52;2.47;;;2.22;;
45842;SDS011;31563;51.744;8.252;2024-01-30T14:04:20;2.05;;;1.88;;
45842;SDS011;31563;51.744;8.252;2024-01-30T14:06:48;2.60;;;1.88;;
45842;SDS011;31563;51.744;8.252;2024-01-30T14:09:29;2.63;;;2.20;;
45842;SDS011;31563;51.744;8.252;2024-01-30T14:11:58;2.47;;;1.98;;
45842;SDS011;31563;51.744;8.252;2024-01-30T14:14:27;2.58;;;2.33;;
45842;SDS011;31563;51.744;8.252;2024-01-30T14:16:55;2.15;;;1.95;;
45842;SDS011;31563;51.744;8.252;2024-01-30T14:19:24;2.63;;;2.20;;
45842;SDS011;31563;51.744;8.252;2024-01-30T14:21:52;2.20;;;2.00;;
45842;SDS011;31563;51.744;8.252;2024-01-30T14:24:20;2.63;;;2.15;;
45842;SDS011;31563;51.744;8.252;2024-01-30T14:26:48;3.22;;;2.25;;
45842;SDS011;31563;51.744;8.252;2024-01-30T14:29:17;2.58;;;2.10;;
45842;SDS011;31563;51.744;8.252;2024-01-30T14:31:46;2.60;;;2.20;;
45842;SDS011;31563;51.744;8.252;2024-01-30T14:34:14;3.08;;;1.73;;
45842;SDS011;31563;51.744;8.252;2024-01-30T14:36:42;2.45;;;1.83;;
45842;SDS011;31563;51.744;8.252;2024-01-30T14:39:10;2.70;;;2.22;;
45842;SDS011;31563;51.744;8.252;2024-01-30T14:41:38;2.30;;;1.85;;
45842;SDS011;31563;51.744;8.252;2024-01-30T14:44:06;2.67;;;2.28;;
45842;SDS011;31563;51.744;8.252;2024-01-30T14:46:34;2.75;;;1.90;;
45842;SDS011;31563;51.744;8.252;2024-01-30T14:49:04;2.47;;;2.10;;
45842;SDS011;31563;51.744;8.252;2024-01-30T14:51:33;2.80;;;2.55;;
45842;SDS011;31563;51.744;8.252;2024-01-30T14:54:01;2.65;;;2.00;;
45842;SDS011;31563;51.744;8.252;2024-01-30T14:56:29;2.72;;;2.00;;
45842;SDS011;31563;51.744;8.252;2024-01-30T14:58:59;2.13;;;1.92;;
45842;SDS011;31563;51.744;8.252;2024-01-30T15:01:27;2.45;;;2.25;;
45842;SDS011;31563;51.744;8.252;2024-01-30T15:03:55;3.42;;;2.10;;
45842;SDS011;31563;51.744;8.252;2024-01-30T15:06:24;2.85;;;2.10;;
45842;SDS011;31563;51.744;8.252;2024-01-30T15:08:53;2.80;;;2.10;;
45842;SDS011;31563;51.744;8.252;2024-01-30T15:11:21;2.60;;;2.40;;